»·PEaware :: N228Q KAPV-KBFL

N228Q :: KAPV-KBFL

FLIGHT INFORMATION

Flight Status: Arrived
Operator: Privately registered:
United States
More flights under this callsign
Pilot: John M. (9732)
Aircraft: PIPER PA-44 SEMINOLE
(PA44)
More flights by this aircraft type
Origin: KAPV Apple Valley
United States
Destination: KBFL Meadows
United States
More flights between these airports :: More routes between these airports
Route: IMSIJ V386 PMD V197 MINGI
File this flight plan on PilotEdge
Remarks: #1 so cal alpha challenge
Altitude:
(Current/Filed)
10,500ft
Speed:
(Current/Filed)
140kts
Departed: 03-Feb-21 07:52 PM
Arrived: 03-Feb-21 09:15 PM
Distance/Time
Traveled:
105nm/1:23
Distance/Time
To Go:
Arrived

Flight Plot

Page will automatically refresh every two minutes.

Flight plan parsing failed; only flown route is shown


Map Options




Map Legend


Flown Route
Filed Route
Departure Airport
Arrival Airport
Navaid (VOR, NDB)
Fix

Horizontal Profiles

Position Reports

Time Latitude Longitude Heading Altitude Ground
Speed
03-Feb-21 19:31 34.576269 -117.188537 270 2990ft 0kts
03-Feb-21 19:32 34.576269 -117.188537 270 2990ft 0kts
03-Feb-21 19:33 34.576269 -117.188537 270 2990ft 0kts
03-Feb-21 19:34 34.576269 -117.188537 270 2990ft 0kts
03-Feb-21 19:35 34.576269 -117.188537 270 2990ft 0kts
03-Feb-21 19:36 34.576269 -117.188537 270 2990ft 0kts
03-Feb-21 19:37 34.576269 -117.188537 270 2990ft 0kts
03-Feb-21 19:38 34.576269 -117.188537 270 2990ft 0kts
03-Feb-21 19:40 34.576269 -117.188537 270 2990ft 0kts
03-Feb-21 19:41 34.576269 -117.188537 270 2990ft 0kts
03-Feb-21 19:42 34.576269 -117.188537 270 2990ft 0kts
03-Feb-21 19:43 34.576269 -117.188537 270 2990ft 0kts
03-Feb-21 19:44 34.577008 -117.188159 50 2997ft 6kts
03-Feb-21 19:45 34.578445 -117.187112 14 3007ft 7kts
03-Feb-21 19:46 34.580543 -117.186375 15 3023ft 10kts
03-Feb-21 19:47 34.583738 -117.185273 16 3041ft 11kts
03-Feb-21 19:48 34.586551 -117.184291 16 3057ft 7kts
03-Feb-21 19:49 34.587712 -117.183436 97 3065ft 0kts
03-Feb-21 19:50 34.587000 -117.182696 199 3062ft 5kts
03-Feb-21 19:51 34.586806 -117.182790 201 3060ft 0kts
03-Feb-21 19:52 34.577028 -117.186310 195 3231ft 109kts
03-Feb-21 19:53 34.543982 -117.196577 235 4321ft 144kts
03-Feb-21 19:53 34.547245 -117.234756 297 4551ft 143kts
03-Feb-21 19:55 34.569363 -117.281460 299 5364ft 133kts
03-Feb-21 19:56 34.579601 -117.322513 278 6074ft 128kts
03-Feb-21 19:56 34.596275 -117.351675 309 6663ft 127kts
03-Feb-21 19:58 34.603650 -117.392094 239 7461ft 116kts
03-Feb-21 19:58 34.590569 -117.419609 266 8040ft 108kts
03-Feb-21 19:59 34.592563 -117.456681 275 8760ft 116kts
03-Feb-21 20:01 34.595569 -117.502802 274 9580ft 117kts
03-Feb-21 20:01 34.597782 -117.535370 273 10159ft 114kts
03-Feb-21 20:02 34.600159 -117.573079 271 10482ft 109kts
03-Feb-21 20:03 34.602760 -117.611656 271 10475ft 117kts
03-Feb-21 20:04 34.605321 -117.651203 271 10472ft 117kts
03-Feb-21 20:05 34.607891 -117.690793 271 10468ft 118kts
03-Feb-21 20:06 34.610456 -117.730547 271 10477ft 117kts
03-Feb-21 20:07 34.613011 -117.770400 271 10483ft 117kts
03-Feb-21 20:08 34.615523 -117.809991 271 10475ft 117kts
03-Feb-21 20:09 34.618025 -117.849358 271 10466ft 117kts
03-Feb-21 20:10 34.620514 -117.888797 270 10447ft 117kts
03-Feb-21 20:11 34.623006 -117.928227 271 10509ft 117kts
03-Feb-21 20:12 34.625441 -117.967859 271 10507ft 117kts
03-Feb-21 20:13 34.627919 -118.007497 271 10497ft 117kts
03-Feb-21 20:14 34.630354 -118.047056 271 10488ft 117kts
03-Feb-21 20:15 34.647580 -118.079915 340 10439ft 149kts
03-Feb-21 20:16 34.662828 -118.038850 133 10171ft 171kts
03-Feb-21 20:17 34.632094 -117.993514 137 9773ft 171kts
03-Feb-21 20:18 34.610303 -117.945267 110 9446ft 164kts
03-Feb-21 20:19 34.596284 -117.894370 109 9531ft 152kts
03-Feb-21 20:20 34.587575 -117.862424 109 9535ft 157kts
03-Feb-21 20:21 34.585082 -117.809900 89 9583ft 157kts
03-Feb-21 20:22 34.585486 -117.757096 89 9663ft 156kts
03-Feb-21 20:23 34.585934 -117.706202 89 10038ft 147kts
03-Feb-21 20:24 34.587406 -117.653402 89 10433ft 165kts
03-Feb-21 20:25 34.604891 -117.606929 351 10489ft 152kts
03-Feb-21 20:26 34.618100 -117.639997 270 10494ft 117kts
03-Feb-21 20:27 34.619487 -117.679552 269 10495ft 117kts
03-Feb-21 20:28 34.620510 -117.719221 269 10502ft 117kts
03-Feb-21 20:29 34.621475 -117.758997 269 10504ft 117kts
03-Feb-21 20:30 34.622459 -117.798759 269 10499ft 117kts
03-Feb-21 20:31 34.623497 -117.838539 269 10498ft 117kts
03-Feb-21 20:32 34.624459 -117.878194 269 10486ft 117kts
03-Feb-21 20:33 34.631258 -117.917466 279 10502ft 120kts
03-Feb-21 20:34 34.637108 -117.957569 270 10507ft 120kts
03-Feb-21 20:35 34.638802 -117.998168 274 10508ft 121kts
03-Feb-21 20:36 34.647663 -118.037796 287 10507ft 123kts
03-Feb-21 20:37 34.662825 -118.075487 289 10499ft 124kts
03-Feb-21 20:38 34.677072 -118.113408 287 10492ft 123kts
03-Feb-21 20:39 34.696728 -118.148828 300 10498ft 128kts
03-Feb-21 20:40 34.721621 -118.180922 303 10497ft 130kts
03-Feb-21 20:41 34.746234 -118.213130 303 10490ft 129kts
03-Feb-21 20:42 34.770857 -118.245254 303 10491ft 129kts
03-Feb-21 20:43 34.795543 -118.277448 303 10493ft 130kts
03-Feb-21 20:44 34.820253 -118.309684 303 10487ft 129kts
03-Feb-21 20:45 34.844862 -118.341873 303 10483ft 129kts
03-Feb-21 20:46 34.869485 -118.374082 303 10481ft 130kts
03-Feb-21 20:47 34.894078 -118.406309 303 10479ft 129kts
03-Feb-21 20:48 34.918635 -118.438532 303 10478ft 129kts
03-Feb-21 20:49 34.943306 -118.470877 303 10483ft 130kts
03-Feb-21 20:50 34.968018 -118.503353 303 10532ft 131kts
03-Feb-21 20:51 34.993130 -118.536357 303 10511ft 137kts
03-Feb-21 20:52 35.018760 -118.571021 287 10125ft 126kts
03-Feb-21 20:53 35.023122 -118.614937 272 9410ft 140kts
03-Feb-21 20:54 35.024718 -118.662458 273 8580ft 140kts
03-Feb-21 20:55 35.026433 -118.710199 273 7832ft 141kts
03-Feb-21 20:56 35.028152 -118.756742 273 7026ft 131kts
03-Feb-21 20:57 35.029762 -118.801248 273 6219ft 132kts
03-Feb-21 20:58 35.031381 -118.846431 273 5406ft 133kts
03-Feb-21 20:59 35.059309 -118.865536 0 4642ft 144kts
03-Feb-21 21:00 35.098665 -118.865227 348 4033ft 141kts
03-Feb-21 21:01 35.137594 -118.867510 350 3649ft 136kts
03-Feb-21 21:02 35.175139 -118.869801 351 3518ft 132kts
03-Feb-21 21:03 35.210199 -118.871896 349 3509ft 121kts
03-Feb-21 21:04 35.243929 -118.873821 349 3512ft 121kts
03-Feb-21 21:05 35.277622 -118.875951 343 3515ft 118kts
03-Feb-21 21:06 35.298814 -118.896262 306 3259ft 95kts
03-Feb-21 21:07 35.316137 -118.920491 297 2858ft 93kts
03-Feb-21 21:08 35.333542 -118.944454 313 2307ft 95kts
03-Feb-21 21:09 35.352521 -118.963119 311 2043ft 84kts
03-Feb-21 21:10 35.369519 -118.982168 305 1890ft 81kts
03-Feb-21 21:11 35.385891 -119.001749 305 1727ft 82kts
03-Feb-21 21:12 35.402816 -119.022263 308 1292ft 88kts
03-Feb-21 21:13 35.420755 -119.044164 314 648ft 88kts
03-Feb-21 21:14 35.435027 -119.061191 315 488ft 38kts
03-Feb-21 21:15 35.439030 -119.064963 48 492ft 6kts
03-Feb-21 21:16 35.439162 -119.064783 46 495ft 0kts
03-Feb-21 21:17 35.439245 -119.064681 45 496ft 5kts
03-Feb-21 21:18 35.440382 -119.061823 125 496ft 16kts
03-Feb-21 21:19 35.438145 -119.056066 10 497ft 13kts
03-Feb-21 21:20 35.438509 -119.055901 51 497ft 0kts
03-Feb-21 21:21 35.438509 -119.055901 51 497ft 0kts
03-Feb-21 21:22 35.438509 -119.055901 51 497ft 0kts
03-Feb-21 21:23 35.438509 -119.055901 51 497ft 0kts

Navigation Log

Ident Type
Flight plan parsing failed, navigation log unavailable